createdAt,value
2019-03-18T00:03:26.078Z,3.76
2019-03-18T00:07:29.718Z,3.69
2019-03-18T00:11:33.470Z,3.74
2019-03-18T00:15:37.041Z,3.73
2019-03-18T00:19:42.822Z,3.84
2019-03-18T00:23:46.031Z,3.84
2019-03-18T00:27:49.688Z,3.78
2019-03-18T00:31:53.451Z,3.85
2019-03-18T00:35:57.269Z,3.92
2019-03-18T00:40:01.099Z,3.93
2019-03-18T00:44:04.807Z,3.98
2019-03-18T00:48:08.620Z,4.01
2019-03-18T00:52:12.383Z,3.94
2019-03-18T00:56:15.934Z,3.91
2019-03-18T01:00:20.124Z,3.91
2019-03-18T01:04:23.661Z,3.96
2019-03-18T01:08:27.451Z,3.81
2019-03-18T01:12:31.061Z,3.86
2019-03-18T01:16:34.805Z,4.01
2019-03-18T01:20:38.480Z,4.03
2019-03-18T01:24:42.159Z,4.09
2019-03-18T01:28:45.817Z,4.07
2019-03-18T01:32:49.718Z,4.01
2019-03-18T01:36:53.432Z,3.99
2019-03-18T01:40:57.139Z,4.06
2019-03-18T01:45:03.522Z,4.11
2019-03-18T01:49:07.131Z,4.09
2019-03-18T01:53:11.053Z,3.95
2019-03-18T01:57:14.616Z,3.92
2019-03-18T02:01:18.149Z,3.98
2019-03-18T02:05:21.863Z,4.00
2019-03-18T02:09:25.517Z,3.95
2019-03-18T02:13:29.116Z,3.98
2019-03-18T02:17:32.897Z,3.97
2019-03-18T02:21:36.676Z,3.96
2019-03-18T02:25:40.305Z,3.93
2019-03-18T02:29:44.141Z,3.90
2019-03-18T02:33:47.967Z,3.85
2019-03-18T02:37:51.637Z,3.80
2019-03-18T02:41:55.377Z,3.81
2019-03-18T02:46:10.021Z,3.85
2019-03-18T02:50:05.799Z,3.79
2019-03-18T02:54:09.581Z,3.81
2019-03-18T02:58:13.253Z,3.77
2019-03-18T03:02:16.816Z,3.82
2019-03-18T03:06:20.436Z,3.84
2019-03-18T03:10:24.254Z,3.77
2019-03-18T03:14:27.791Z,3.63
2019-03-18T03:18:31.417Z,3.60
2019-03-18T03:22:35.079Z,3.57
2019-03-18T03:26:38.671Z,3.62
2019-03-18T03:30:42.267Z,3.75
2019-03-18T03:34:46.048Z,3.83
2019-03-18T03:38:49.762Z,3.84
2019-03-18T03:42:53.578Z,3.86
2019-03-18T03:46:57.451Z,3.84
2019-03-18T03:51:01.273Z,3.80
2019-03-18T03:55:06.664Z,3.81
2019-03-18T03:59:10.419Z,3.78
2019-03-18T04:03:14.075Z,3.74
2019-03-18T04:07:18.084Z,3.82
2019-03-18T04:11:21.681Z,3.80
2019-03-18T04:15:25.311Z,3.80
2019-03-18T04:19:29.219Z,3.91
2019-03-18T04:23:32.830Z,3.88
2019-03-18T04:27:36.698Z,3.90
2019-03-18T04:31:41.506Z,3.88
2019-03-18T04:35:45.302Z,3.95
2019-03-18T04:39:49.064Z,4.00
2019-03-18T04:43:52.688Z,3.98
2019-03-18T04:47:56.294Z,3.93
2019-03-18T04:51:59.860Z,3.77
2019-03-18T04:56:03.564Z,3.59
2019-03-18T05:00:10.653Z,3.58
2019-03-18T05:04:14.155Z,3.74
2019-03-18T05:08:17.798Z,3.75
2019-03-18T05:12:21.377Z,3.70
2019-03-18T05:16:25.048Z,3.69
2019-03-18T05:20:28.609Z,3.75
2019-03-18T05:24:32.178Z,3.79
2019-03-18T05:28:35.789Z,3.85
2019-03-18T05:32:39.467Z,3.93
2019-03-18T05:36:43.166Z,3.93
2019-03-18T05:40:46.957Z,4.03
2019-03-18T05:44:50.654Z,3.93
2019-03-18T05:48:54.259Z,4.00
2019-03-18T05:52:58.046Z,4.00
2019-03-18T05:57:01.693Z,3.95
2019-03-18T06:01:05.919Z,4.12
2019-03-18T06:05:11.121Z,4.12
2019-03-18T06:09:14.940Z,4.11
2019-03-18T06:13:18.595Z,4.12
2019-03-18T06:17:22.104Z,4.16
2019-03-18T06:21:25.607Z,4.39
2019-03-18T06:25:35.049Z,4.35
2019-03-18T06:29:44.073Z,4.46
2019-03-18T06:34:12.352Z,4.53
2019-03-18T06:38:18.451Z,4.59
2019-03-18T06:42:30.817Z,4.56
2019-03-18T06:46:51.593Z,4.60
2019-03-18T06:51:05.178Z,5.31
2019-03-18T06:55:11.979Z,6.08
2019-03-18T06:59:25.368Z,5.37
2019-03-18T07:03:44.627Z,5.10
2019-03-18T07:07:55.204Z,4.88
2019-03-18T07:12:01.814Z,4.79
2019-03-18T07:16:17.303Z,4.81
2019-03-18T07:20:25.836Z,4.89
2019-03-18T07:24:37.181Z,5.09
2019-03-18T07:28:50.817Z,5.23
2019-03-18T07:32:54.371Z,5.65
2019-03-18T07:36:57.965Z,5.25
2019-03-18T07:41:09.690Z,5.31
2019-03-18T07:45:16.019Z,5.61
2019-03-18T07:49:19.837Z,5.47
2019-03-18T07:53:23.314Z,5.10
2019-03-18T07:57:26.824Z,5.09
2019-03-18T08:01:30.327Z,5.22
2019-03-18T08:05:33.825Z,5.55
2019-03-18T08:09:37.418Z,5.35
2019-03-18T08:13:40.963Z,5.89
2019-03-18T08:17:48.124Z,6.42
2019-03-18T08:21:52.391Z,6.78
2019-03-18T08:25:56.924Z,6.80
2019-03-18T08:30:00.883Z,6.52
2019-03-18T08:34:04.734Z,6.01
2019-03-18T08:38:14.622Z,5.90
2019-03-18T08:42:18.226Z,6.05
2019-03-18T08:46:35.390Z,6.82
2019-03-18T08:55:28.102Z,6.39
2019-03-18T08:59:32.372Z,6.23
2019-03-18T09:03:41.270Z,7.09
2019-03-18T09:07:53.061Z,6.93
2019-03-18T09:12:00.442Z,6.68
2019-03-18T09:16:18.450Z,6.93
2019-03-18T09:20:26.469Z,6.64
2019-03-18T09:24:37.815Z,6.67
2019-03-18T09:29:08.957Z,6.57
2019-03-18T09:33:25.370Z,6.46
2019-03-18T09:37:29.433Z,6.54
2019-03-18T09:41:34.894Z,7.60
2019-03-18T09:45:43.233Z,7.53
2019-03-18T09:49:48.458Z,7.04
2019-03-18T09:53:52.368Z,7.09
2019-03-18T09:57:56.390Z,7.03
2019-03-18T10:02:02.027Z,7.16
2019-03-18T10:06:05.901Z,7.35
2019-03-18T10:10:14.201Z,7.69
2019-03-18T10:14:20.840Z,6.82
2019-03-18T10:18:24.470Z,6.50
2019-03-18T10:22:28.420Z,8.94
2019-03-18T10:26:32.250Z,9.62
2019-03-18T10:30:38.595Z,10.19
2019-03-18T10:34:42.430Z,10.68
2019-03-18T10:38:46.287Z,11.41
2019-03-18T10:42:52.221Z,10.68
2019-03-18T10:47:02.861Z,10.68
2019-03-18T10:51:13.881Z,13.78
2019-03-18T10:55:18.066Z,13.78
2019-03-18T10:59:25.219Z,12.33
2019-03-18T11:08:08.494Z,13.73
2019-03-18T11:12:16.140Z,10.91
2019-03-18T11:16:20.175Z,9.58
2019-03-18T11:20:24.059Z,9.19
2019-03-18T11:24:27.615Z,9.09
2019-03-18T11:28:31.130Z,9.38
2019-03-18T11:32:37.140Z,9.59
2019-03-18T11:36:42.216Z,8.53
2019-03-18T11:40:53.253Z,8.36
2019-03-18T11:45:00.491Z,8.08
2019-03-18T11:49:15.199Z,8.96
2019-03-18T11:53:23.251Z,9.21
2019-03-18T11:57:57.258Z,8.98
2019-03-18T12:02:02.486Z,9.05
2019-03-18T12:06:19.421Z,9.65
2019-03-18T12:10:26.235Z,9.69
2019-03-18T12:14:34.514Z,9.69
2019-03-18T12:18:38.059Z,9.54
2019-03-18T12:22:41.907Z,9.55
2019-03-18T12:26:45.531Z,8.75
2019-03-18T12:30:53.962Z,7.89
2019-03-18T12:34:59.060Z,8.05
2019-03-18T12:39:02.679Z,7.92
2019-03-18T12:43:09.576Z,8.09
2019-03-18T12:47:16.221Z,8.75
2019-03-18T12:51:32.935Z,9.19
2019-03-18T12:55:35.241Z,9.61
2019-03-18T12:59:38.859Z,9.87
2019-03-18T13:03:42.577Z,9.93
2019-03-18T13:07:51.163Z,8.93
2019-03-18T13:11:54.727Z,8.94
2019-03-18T13:15:59.792Z,9.03
2019-03-18T13:20:06.053Z,8.49
2019-03-18T13:24:10.768Z,8.17
2019-03-18T13:28:16.385Z,8.32
2019-03-18T13:32:20.309Z,9.60
2019-03-18T13:36:25.507Z,9.64
2019-03-18T13:40:30.046Z,9.42
2019-03-18T13:44:33.761Z,9.61
2019-03-18T13:48:37.310Z,9.36
2019-03-18T13:52:40.981Z,7.34
2019-03-18T13:56:44.673Z,6.95
2019-03-18T14:00:49.130Z,7.48
2019-03-18T14:04:54.043Z,8.18
2019-03-18T14:08:59.703Z,7.95
2019-03-18T14:13:05.321Z,8.01
2019-03-18T14:17:12.094Z,7.43
2019-03-18T14:21:19.078Z,7.35
2019-03-18T14:25:22.980Z,7.01
2019-03-18T14:29:29.534Z,7.68
2019-03-18T14:33:38.180Z,7.79
2019-03-18T14:37:44.131Z,8.08
2019-03-18T14:41:47.760Z,8.08
2019-03-18T14:45:52.165Z,8.01
2019-03-18T14:49:57.465Z,8.18
2019-03-18T14:54:01.073Z,8.03
2019-03-18T14:58:04.666Z,7.90
2019-03-18T15:02:08.219Z,7.89
2019-03-18T15:06:11.875Z,8.10
2019-03-18T15:10:21.031Z,8.27
2019-03-18T15:14:26.262Z,8.35
2019-03-18T15:18:30.000Z,8.48
2019-03-18T15:22:33.770Z,8.75
2019-03-18T15:26:37.258Z,8.51
2019-03-18T15:30:41.109Z,8.34
2019-03-18T15:34:44.825Z,8.13
2019-03-18T15:38:48.623Z,7.87
2019-03-18T15:42:52.298Z,7.60
2019-03-18T15:46:56.377Z,7.37
2019-03-18T15:51:04.313Z,7.25
2019-03-18T15:55:11.814Z,7.02
2019-03-18T15:59:15.492Z,6.80
2019-03-18T16:03:19.237Z,6.60
2019-03-18T16:07:23.060Z,6.26
2019-03-18T16:11:33.703Z,6.33
2019-03-18T16:15:37.443Z,6.22
2019-03-18T16:19:43.566Z,6.01
2019-03-18T16:23:48.810Z,6.09
2019-03-18T16:27:52.782Z,6.19
2019-03-18T16:31:56.776Z,6.23
2019-03-18T16:36:01.667Z,6.23
2019-03-18T16:40:08.695Z,6.09
2019-03-18T16:44:14.198Z,6.07
2019-03-18T16:48:18.100Z,6.02
2019-03-18T16:52:21.571Z,5.89
2019-03-18T16:56:25.266Z,5.75
2019-03-18T17:00:29.126Z,5.69
2019-03-18T17:04:34.692Z,5.77
2019-03-18T17:08:38.530Z,5.64
2019-03-18T17:12:42.524Z,5.60
2019-03-18T17:16:51.906Z,5.41
2019-03-18T17:20:55.542Z,5.40
2019-03-18T17:24:59.359Z,5.40
2019-03-18T17:29:02.921Z,5.44
2019-03-18T17:33:06.422Z,5.29
2019-03-18T17:37:11.835Z,5.20
2019-03-18T17:41:15.369Z,5.02
2019-03-18T17:45:19.355Z,4.96
2019-03-18T17:49:23.008Z,4.74
2019-03-18T17:53:26.813Z,4.79
2019-03-18T17:57:30.365Z,4.80
2019-03-18T18:01:58.415Z,4.80
2019-03-18T18:06:07.950Z,4.91
2019-03-18T18:10:26.615Z,4.98
2019-03-18T18:24:11.387Z,3.96
2019-03-18T18:28:16.017Z,3.81
2019-03-18T18:32:19.570Z,4.04
2019-03-18T18:36:25.278Z,3.86
2019-03-18T18:40:30.667Z,3.85
2019-03-18T18:44:34.345Z,3.72
2019-03-18T18:48:37.870Z,3.51
2019-03-18T18:52:51.352Z,3.40
2019-03-18T18:56:55.053Z,3.31
2019-03-18T19:00:58.805Z,3.20
2019-03-18T19:05:04.051Z,3.29
2019-03-18T19:09:13.511Z,3.23
2019-03-18T19:13:17.888Z,3.27
2019-03-18T19:17:24.025Z,3.11
2019-03-18T19:21:27.536Z,3.08
2019-03-18T19:25:32.904Z,3.14
2019-03-18T19:29:36.510Z,3.32
2019-03-18T19:33:40.039Z,3.42
2019-03-18T19:37:46.894Z,3.39
2019-03-18T19:41:50.538Z,3.47
2019-03-18T19:45:56.707Z,3.58
2019-03-18T19:50:00.231Z,3.69
2019-03-18T19:54:03.828Z,3.71
2019-03-18T19:58:09.360Z,3.71
2019-03-18T20:02:13.312Z,3.81
2019-03-18T20:06:16.939Z,3.81
2019-03-18T20:10:21.680Z,3.76
2019-03-18T20:14:26.683Z,3.87
2019-03-18T20:18:30.199Z,3.85
2019-03-18T20:22:33.786Z,3.84
2019-03-18T20:26:40.218Z,3.98
2019-03-18T20:30:49.023Z,3.99
2019-03-18T20:34:54.565Z,4.09
2019-03-18T20:39:01.342Z,4.09
2019-03-18T20:43:05.035Z,4.21
2019-03-18T20:47:08.665Z,4.14
2019-03-18T20:51:12.715Z,4.12
2019-03-18T20:55:17.128Z,4.02
2019-03-18T20:59:20.795Z,4.01
2019-03-18T21:03:24.381Z,4.07
2019-03-18T21:07:28.511Z,4.05
2019-03-18T21:11:32.109Z,3.76
2019-03-18T21:15:50.346Z,3.76
2019-03-18T21:19:54.023Z,3.57
2019-03-18T21:23:57.546Z,3.41
2019-03-18T21:28:01.012Z,3.32
2019-03-18T21:32:04.696Z,3.33
2019-03-18T21:36:08.460Z,3.21
2019-03-18T21:40:19.202Z,3.22
2019-03-18T21:44:24.354Z,3.09
2019-03-18T21:48:27.952Z,3.10
2019-03-18T21:52:31.482Z,3.04
2019-03-18T21:56:35.160Z,3.04
2019-03-18T22:00:38.695Z,3.14
2019-03-18T22:04:42.319Z,3.21
2019-03-18T22:08:46.883Z,3.06
2019-03-18T22:12:53.076Z,3.10
2019-03-18T22:16:56.603Z,3.16
2019-03-18T22:21:01.395Z,3.18
2019-03-18T22:25:07.147Z,3.20
2019-03-18T22:29:21.044Z,3.25
2019-03-18T22:33:26.271Z,3.03
2019-03-18T22:37:29.802Z,2.93
2019-03-18T22:41:34.950Z,3.01
2019-03-18T22:45:42.239Z,2.97
2019-03-18T22:49:45.953Z,3.17
2019-03-18T22:53:49.601Z,3.25
2019-03-18T22:57:55.635Z,3.18
2019-03-18T23:01:59.427Z,2.99
2019-03-18T23:06:04.545Z,2.91
2019-03-18T23:10:10.379Z,2.80
2019-03-18T23:14:13.879Z,2.69
2019-03-18T23:18:23.456Z,2.66
2019-03-18T23:22:27.419Z,2.67
2019-03-18T23:26:30.939Z,2.56
2019-03-18T23:30:34.430Z,2.67
2019-03-18T23:34:39.163Z,2.60
2019-03-18T23:38:42.805Z,2.57
2019-03-18T23:42:46.433Z,2.65
2019-03-18T23:46:49.986Z,2.71
2019-03-18T23:50:54.145Z,2.56
2019-03-18T23:54:57.775Z,2.51
2019-03-18T23:59:04.448Z,2.37
